sensor_id;sensor_type;location;lat;lon;timestamp;P1;durP1;ratioP1;P2;durP2;ratioP2
3875;SDS011;1953;51.222;6.624;2022-07-22T00:03:42;21.80;;;9.30;;
3875;SDS011;1953;51.222;6.624;2022-07-22T00:08:24;14.00;;;8.27;;
3875;SDS011;1953;51.222;6.624;2022-07-22T00:13:07;20.20;;;9.40;;
3875;SDS011;1953;51.222;6.624;2022-07-22T00:17:49;22.13;;;9.57;;
3875;SDS011;1953;51.222;6.624;2022-07-22T00:22:33;25.63;;;9.33;;
3875;SDS011;1953;51.222;6.624;2022-07-22T00:27:16;17.53;;;9.10;;
3875;SDS011;1953;51.222;6.624;2022-07-22T00:31:58;20.27;;;10.30;;
3875;SDS011;1953;51.222;6.624;2022-07-22T00:36:41;17.23;;;8.97;;
3875;SDS011;1953;51.222;6.624;2022-07-22T00:41:24;18.20;;;8.77;;
3875;SDS011;1953;51.222;6.624;2022-07-22T00:46:07;17.93;;;8.73;;
3875;SDS011;1953;51.222;6.624;2022-07-22T00:50:49;14.47;;;8.87;;
3875;SDS011;1953;51.222;6.624;2022-07-22T00:55:34;19.43;;;10.30;;
3875;SDS011;1953;51.222;6.624;2022-07-22T01:00:19;17.50;;;9.33;;
3875;SDS011;1953;51.222;6.624;2022-07-22T01:05:04;19.77;;;9.63;;
3875;SDS011;1953;51.222;6.624;2022-07-22T01:09:47;20.23;;;10.20;;
3875;SDS011;1953;51.222;6.624;2022-07-22T01:14:30;16.37;;;10.40;;
3875;SDS011;1953;51.222;6.624;2022-07-22T01:19:13;17.23;;;10.60;;
3875;SDS011;1953;51.222;6.624;2022-07-22T01:23:57;17.80;;;10.67;;
3875;SDS011;1953;51.222;6.624;2022-07-22T01:28:40;24.63;;;10.33;;
3875;SDS011;1953;51.222;6.624;2022-07-22T01:33:23;20.40;;;10.73;;
3875;SDS011;1953;51.222;6.624;2022-07-22T01:38:06;19.80;;;10.50;;
3875;SDS011;1953;51.222;6.624;2022-07-22T01:42:50;16.60;;;10.03;;
3875;SDS011;1953;51.222;6.624;2022-07-22T01:47:33;17.20;;;9.93;;
3875;SDS011;1953;51.222;6.624;2022-07-22T01:52:15;15.97;;;10.00;;
3875;SDS011;1953;51.222;6.624;2022-07-22T01:56:58;17.60;;;10.37;;
3875;SDS011;1953;51.222;6.624;2022-07-22T02:01:42;20.00;;;10.03;;
3875;SDS011;1953;51.222;6.624;2022-07-22T02:06:41;24.10;;;10.23;;
3875;SDS011;1953;51.222;6.624;2022-07-22T02:11:24;29.73;;;12.07;;
3875;SDS011;1953;51.222;6.624;2022-07-22T02:16:06;17.83;;;10.10;;
3875;SDS011;1953;51.222;6.624;2022-07-22T02:20:50;22.10;;;9.73;;
3875;SDS011;1953;51.222;6.624;2022-07-22T02:25:33;22.13;;;9.20;;
3875;SDS011;1953;51.222;6.624;2022-07-22T02:30:16;14.63;;;8.97;;
3875;SDS011;1953;51.222;6.624;2022-07-22T02:34:59;16.63;;;8.40;;
3875;SDS011;1953;51.222;6.624;2022-07-22T02:39:42;13.80;;;7.73;;
3875;SDS011;1953;51.222;6.624;2022-07-22T02:44:25;15.53;;;7.47;;
3875;SDS011;1953;51.222;6.624;2022-07-22T02:49:07;15.50;;;7.60;;
3875;SDS011;1953;51.222;6.624;2022-07-22T02:53:50;16.20;;;7.47;;
3875;SDS011;1953;51.222;6.624;2022-07-22T02:58:34;12.97;;;6.90;;
3875;SDS011;1953;51.222;6.624;2022-07-22T03:03:16;15.87;;;7.30;;
3875;SDS011;1953;51.222;6.624;2022-07-22T03:07:58;16.20;;;7.83;;
3875;SDS011;1953;51.222;6.624;2022-07-22T03:12:41;16.53;;;8.20;;
3875;SDS011;1953;51.222;6.624;2022-07-22T03:17:25;21.30;;;8.70;;
3875;SDS011;1953;51.222;6.624;2022-07-22T03:22:08;16.30;;;9.10;;
3875;SDS011;1953;51.222;6.624;2022-07-22T03:26:50;17.70;;;9.10;;
3875;SDS011;1953;51.222;6.624;2022-07-22T03:31:32;15.93;;;9.33;;
3875;SDS011;1953;51.222;6.624;2022-07-22T03:36:16;22.57;;;9.40;;
3875;SDS011;1953;51.222;6.624;2022-07-22T03:40:59;20.87;;;8.80;;
3875;SDS011;1953;51.222;6.624;2022-07-22T03:45:41;15.43;;;9.97;;
3875;SDS011;1953;51.222;6.624;2022-07-22T03:50:25;21.27;;;10.07;;
3875;SDS011;1953;51.222;6.624;2022-07-22T03:55:09;16.80;;;9.77;;
3875;SDS011;1953;51.222;6.624;2022-07-22T03:59:52;21.60;;;10.23;;
3875;SDS011;1953;51.222;6.624;2022-07-22T04:04:34;20.60;;;10.80;;
3875;SDS011;1953;51.222;6.624;2022-07-22T04:09:17;17.00;;;10.27;;
3875;SDS011;1953;51.222;6.624;2022-07-22T04:14:01;15.13;;;8.53;;
3875;SDS011;1953;51.222;6.624;2022-07-22T04:18:43;11.93;;;5.93;;
3875;SDS011;1953;51.222;6.624;2022-07-22T04:23:26;10.23;;;5.17;;
3875;SDS011;1953;51.222;6.624;2022-07-22T04:28:08;17.70;;;6.63;;
3875;SDS011;1953;51.222;6.624;2022-07-22T04:32:52;10.27;;;4.57;;
3875;SDS011;1953;51.222;6.624;2022-07-22T04:37:35;8.40;;;4.40;;
3875;SDS011;1953;51.222;6.624;2022-07-22T04:42:17;9.23;;;4.00;;
3875;SDS011;1953;51.222;6.624;2022-07-22T04:46:59;10.60;;;4.07;;
3875;SDS011;1953;51.222;6.624;2022-07-22T04:51:43;9.80;;;4.83;;
3875;SDS011;1953;51.222;6.624;2022-07-22T04:56:26;14.60;;;4.70;;
3875;SDS011;1953;51.222;6.624;2022-07-22T05:01:08;11.30;;;5.03;;
3875;SDS011;1953;51.222;6.624;2022-07-22T05:05:51;11.20;;;4.90;;
3875;SDS011;1953;51.222;6.624;2022-07-22T05:10:35;7.87;;;4.63;;
3875;SDS011;1953;51.222;6.624;2022-07-22T05:15:17;12.00;;;4.70;;
3875;SDS011;1953;51.222;6.624;2022-07-22T05:20:01;14.33;;;4.70;;
3875;SDS011;1953;51.222;6.624;2022-07-22T05:24:44;10.47;;;4.67;;
3875;SDS011;1953;51.222;6.624;2022-07-22T05:29:28;10.53;;;4.90;;
3875;SDS011;1953;51.222;6.624;2022-07-22T05:34:10;7.87;;;4.27;;
3875;SDS011;1953;51.222;6.624;2022-07-22T05:38:53;10.73;;;4.30;;
3875;SDS011;1953;51.222;6.624;2022-07-22T05:43:35;17.30;;;4.77;;
3875;SDS011;1953;51.222;6.624;2022-07-22T05:48:19;14.03;;;4.30;;
3875;SDS011;1953;51.222;6.624;2022-07-22T05:53:02;13.40;;;4.37;;
3875;SDS011;1953;51.222;6.624;2022-07-22T05:57:44;11.13;;;4.27;;
3875;SDS011;1953;51.222;6.624;2022-07-22T06:02:27;17.00;;;4.20;;
3875;SDS011;1953;51.222;6.624;2022-07-22T06:07:11;9.10;;;4.37;;
3875;SDS011;1953;51.222;6.624;2022-07-22T06:11:53;6.80;;;4.13;;
3875;SDS011;1953;51.222;6.624;2022-07-22T06:16:36;12.03;;;4.33;;
3875;SDS011;1953;51.222;6.624;2022-07-22T06:21:18;8.40;;;4.67;;
3875;SDS011;1953;51.222;6.624;2022-07-22T06:26:02;12.37;;;4.60;;
3875;SDS011;1953;51.222;6.624;2022-07-22T06:30:45;10.93;;;4.50;;
3875;SDS011;1953;51.222;6.624;2022-07-22T06:35:27;7.80;;;4.60;;
3875;SDS011;1953;51.222;6.624;2022-07-22T06:40:11;11.60;;;5.13;;
3875;SDS011;1953;51.222;6.624;2022-07-22T06:44:55;16.53;;;6.27;;
3875;SDS011;1953;51.222;6.624;2022-07-22T06:49:37;18.30;;;6.70;;
3875;SDS011;1953;51.222;6.624;2022-07-22T06:54:20;15.80;;;7.57;;
3875;SDS011;1953;51.222;6.624;2022-07-22T06:59:02;14.13;;;7.37;;
3875;SDS011;1953;51.222;6.624;2022-07-22T07:03:46;20.87;;;10.20;;
3875;SDS011;1953;51.222;6.624;2022-07-22T07:08:29;25.67;;;11.17;;
3875;SDS011;1953;51.222;6.624;2022-07-22T07:13:11;20.73;;;8.63;;
3875;SDS011;1953;51.222;6.624;2022-07-22T07:17:54;22.77;;;13.20;;
3875;SDS011;1953;51.222;6.624;2022-07-22T07:22:39;26.17;;;14.23;;
3875;SDS011;1953;51.222;6.624;2022-07-22T07:27:21;17.30;;;12.23;;
3875;SDS011;1953;51.222;6.624;2022-07-22T07:32:05;22.17;;;11.43;;
3875;SDS011;1953;51.222;6.624;2022-07-22T07:36:47;17.93;;;12.47;;
3875;SDS011;1953;51.222;6.624;2022-07-22T07:41:31;16.90;;;11.07;;
3875;SDS011;1953;51.222;6.624;2022-07-22T07:46:14;21.37;;;11.37;;
3875;SDS011;1953;51.222;6.624;2022-07-22T07:50:56;18.90;;;10.93;;
3875;SDS011;1953;51.222;6.624;2022-07-22T07:55:39;15.03;;;11.33;;
3875;SDS011;1953;51.222;6.624;2022-07-22T08:00:23;17.47;;;11.90;;
3875;SDS011;1953;51.222;6.624;2022-07-22T08:05:09;23.20;;;11.70;;
3875;SDS011;1953;51.222;6.624;2022-07-22T08:09:51;13.43;;;9.23;;
3875;SDS011;1953;51.222;6.624;2022-07-22T08:14:34;20.70;;;7.47;;
3875;SDS011;1953;51.222;6.624;2022-07-22T08:19:18;10.53;;;7.50;;
3875;SDS011;1953;51.222;6.624;2022-07-22T08:24:00;19.40;;;6.97;;
3875;SDS011;1953;51.222;6.624;2022-07-22T08:28:43;17.00;;;8.57;;
3875;SDS011;1953;51.222;6.624;2022-07-22T08:33:25;17.90;;;8.20;;
3875;SDS011;1953;51.222;6.624;2022-07-22T08:38:09;11.80;;;7.43;;
3875;SDS011;1953;51.222;6.624;2022-07-22T08:42:51;13.00;;;6.20;;
3875;SDS011;1953;51.222;6.624;2022-07-22T08:47:34;8.03;;;5.97;;
3875;SDS011;1953;51.222;6.624;2022-07-22T08:52:17;6.97;;;5.00;;
3875;SDS011;1953;51.222;6.624;2022-07-22T08:57:00;12.07;;;4.50;;
3875;SDS011;1953;51.222;6.624;2022-07-22T09:06:47;11.70;;;6.00;;
3875;SDS011;1953;51.222;6.624;2022-07-22T09:11:30;14.73;;;6.63;;
3875;SDS011;1953;51.222;6.624;2022-07-22T09:16:14;10.90;;;6.90;;
3875;SDS011;1953;51.222;6.624;2022-07-22T09:20:57;12.70;;;8.17;;
3875;SDS011;1953;51.222;6.624;2022-07-22T09:25:41;15.20;;;8.10;;
3875;SDS011;1953;51.222;6.624;2022-07-22T09:30:24;12.77;;;7.33;;
3875;SDS011;1953;51.222;6.624;2022-07-22T09:35:09;18.13;;;8.73;;
3875;SDS011;1953;51.222;6.624;2022-07-22T09:39:52;12.60;;;8.67;;
3875;SDS011;1953;51.222;6.624;2022-07-22T09:44:35;15.00;;;8.80;;
3875;SDS011;1953;51.222;6.624;2022-07-22T09:49:29;16.87;;;9.20;;
3875;SDS011;1953;51.222;6.624;2022-07-22T09:54:14;21.03;;;9.60;;
3875;SDS011;1953;51.222;6.624;2022-07-22T09:58:56;13.30;;;10.73;;
3875;SDS011;1953;51.222;6.624;2022-07-22T10:03:39;15.40;;;8.90;;
3875;SDS011;1953;51.222;6.624;2022-07-22T10:08:24;14.20;;;10.20;;
3875;SDS011;1953;51.222;6.624;2022-07-22T10:13:08;16.57;;;9.63;;
3875;SDS011;1953;51.222;6.624;2022-07-22T10:17:51;20.83;;;10.87;;
3875;SDS011;1953;51.222;6.624;2022-07-22T10:22:53;19.77;;;11.80;;
3875;SDS011;1953;51.222;6.624;2022-07-22T10:27:43;19.23;;;11.17;;
3875;SDS011;1953;51.222;6.624;2022-07-22T10:32:28;16.47;;;11.70;;
3875;SDS011;1953;51.222;6.624;2022-07-22T10:42:28;19.50;;;12.87;;
3875;SDS011;1953;51.222;6.624;2022-07-22T10:47:53;20.20;;;12.40;;
3875;SDS011;1953;51.222;6.624;2022-07-22T10:52:36;17.90;;;12.83;;
3875;SDS011;1953;51.222;6.624;2022-07-22T10:57:28;18.80;;;13.43;;
3875;SDS011;1953;51.222;6.624;2022-07-22T11:02:13;18.70;;;14.20;;
3875;SDS011;1953;51.222;6.624;2022-07-22T11:06:58;17.90;;;14.10;;
3875;SDS011;1953;51.222;6.624;2022-07-22T11:11:41;20.27;;;13.70;;
3875;SDS011;1953;51.222;6.624;2022-07-22T11:16:25;17.73;;;13.83;;
3875;SDS011;1953;51.222;6.624;2022-07-22T11:21:10;21.73;;;14.07;;
3875;SDS011;1953;51.222;6.624;2022-07-22T11:25:52;17.63;;;13.20;;
3875;SDS011;1953;51.222;6.624;2022-07-22T11:30:39;16.83;;;11.80;;
3875;SDS011;1953;51.222;6.624;2022-07-22T11:35:21;18.80;;;12.67;;
3875;SDS011;1953;51.222;6.624;2022-07-22T11:40:08;17.63;;;12.47;;
3875;SDS011;1953;51.222;6.624;2022-07-22T11:44:52;17.73;;;12.50;;
3875;SDS011;1953;51.222;6.624;2022-07-22T11:49:35;15.40;;;11.27;;
3875;SDS011;1953;51.222;6.624;2022-07-22T11:54:18;15.47;;;11.77;;
3875;SDS011;1953;51.222;6.624;2022-07-22T11:59:03;21.63;;;12.90;;
3875;SDS011;1953;51.222;6.624;2022-07-22T12:04:43;20.97;;;13.70;;
3875;SDS011;1953;51.222;6.624;2022-07-22T12:09:29;18.97;;;13.30;;
3875;SDS011;1953;51.222;6.624;2022-07-22T12:14:13;21.17;;;13.80;;
3875;SDS011;1953;51.222;6.624;2022-07-22T12:18:57;15.90;;;12.70;;
3875;SDS011;1953;51.222;6.624;2022-07-22T12:23:43;15.70;;;12.00;;
3875;SDS011;1953;51.222;6.624;2022-07-22T12:28:32;18.60;;;12.33;;
3875;SDS011;1953;51.222;6.624;2022-07-22T12:33:15;13.73;;;10.47;;
3875;SDS011;1953;51.222;6.624;2022-07-22T12:37:58;13.80;;;10.40;;
3875;SDS011;1953;51.222;6.624;2022-07-22T12:43:00;14.37;;;10.40;;
3875;SDS011;1953;51.222;6.624;2022-07-22T12:47:46;11.27;;;10.10;;
3875;SDS011;1953;51.222;6.624;2022-07-22T12:52:30;14.20;;;11.10;;
3875;SDS011;1953;51.222;6.624;2022-07-22T12:57:12;12.57;;;10.70;;
3875;SDS011;1953;51.222;6.624;2022-07-22T13:01:56;13.53;;;10.10;;
3875;SDS011;1953;51.222;6.624;2022-07-22T13:06:39;15.47;;;9.97;;
3875;SDS011;1953;51.222;6.624;2022-07-22T13:11:22;11.10;;;10.00;;
3875;SDS011;1953;51.222;6.624;2022-07-22T13:16:04;13.13;;;10.07;;
3875;SDS011;1953;51.222;6.624;2022-07-22T13:20:49;10.52;;;9.50;;
3875;SDS011;1953;51.222;6.624;2022-07-22T13:25:31;9.30;;;8.20;;
3875;SDS011;1953;51.222;6.624;2022-07-22T13:30:14;13.30;;;9.02;;
3875;SDS011;1953;51.222;6.624;2022-07-22T13:34:56;9.27;;;7.38;;
3875;SDS011;1953;51.222;6.624;2022-07-22T13:39:40;7.90;;;7.20;;
3875;SDS011;1953;51.222;6.624;2022-07-22T13:44:26;9.45;;;8.07;;
3875;SDS011;1953;51.222;6.624;2022-07-22T13:49:08;10.55;;;8.07;;
3875;SDS011;1953;51.222;6.624;2022-07-22T13:53:51;8.23;;;7.60;;
3875;SDS011;1953;51.222;6.624;2022-07-22T13:58:35;8.75;;;7.82;;
3875;SDS011;1953;51.222;6.624;2022-07-22T14:03:17;7.70;;;7.00;;
3875;SDS011;1953;51.222;6.624;2022-07-22T14:08:00;12.07;;;7.30;;
3875;SDS011;1953;51.222;6.624;2022-07-22T14:12:43;9.75;;;7.85;;
3875;SDS011;1953;51.222;6.624;2022-07-22T14:17:27;7.53;;;6.80;;
3875;SDS011;1953;51.222;6.624;2022-07-22T14:22:09;6.97;;;6.47;;
3875;SDS011;1953;51.222;6.624;2022-07-22T14:26:52;6.65;;;6.15;;
3875;SDS011;1953;51.222;6.624;2022-07-22T14:31:34;8.98;;;6.60;;
3875;SDS011;1953;51.222;6.624;2022-07-22T14:36:18;5.93;;;5.43;;
3875;SDS011;1953;51.222;6.624;2022-07-22T14:41:01;6.57;;;5.75;;
3875;SDS011;1953;51.222;6.624;2022-07-22T14:45:44;7.35;;;6.65;;
3875;SDS011;1953;51.222;6.624;2022-07-22T14:50:26;6.70;;;6.05;;
3875;SDS011;1953;51.222;6.624;2022-07-22T14:55:29;6.68;;;6.05;;
3875;SDS011;1953;51.222;6.624;2022-07-22T15:00:12;6.65;;;6.15;;
3875;SDS011;1953;51.222;6.624;2022-07-22T15:04:55;8.00;;;7.30;;
3875;SDS011;1953;51.222;6.624;2022-07-22T15:09:38;8.20;;;7.40;;
3875;SDS011;1953;51.222;6.624;2022-07-22T15:14:22;8.30;;;6.65;;
3875;SDS011;1953;51.222;6.624;2022-07-22T15:19:05;6.55;;;6.00;;
3875;SDS011;1953;51.222;6.624;2022-07-22T15:23:47;9.43;;;5.90;;
3875;SDS011;1953;51.222;6.624;2022-07-22T15:28:30;6.40;;;5.85;;
3875;SDS011;1953;51.222;6.624;2022-07-22T15:33:13;9.57;;;7.05;;
3875;SDS011;1953;51.222;6.624;2022-07-22T15:37:56;8.23;;;7.43;;
3875;SDS011;1953;51.222;6.624;2022-07-22T15:42:39;8.45;;;7.13;;
3875;SDS011;1953;51.222;6.624;2022-07-22T15:47:21;8.57;;;6.40;;
3875;SDS011;1953;51.222;6.624;2022-07-22T15:52:05;5.80;;;5.18;;
3875;SDS011;1953;51.222;6.624;2022-07-22T15:56:48;9.52;;;6.35;;
3875;SDS011;1953;51.222;6.624;2022-07-22T16:01:31;6.38;;;5.15;;
3875;SDS011;1953;51.222;6.624;2022-07-22T16:06:13;6.63;;;5.82;;
3875;SDS011;1953;51.222;6.624;2022-07-22T16:10:57;8.68;;;6.13;;
3875;SDS011;1953;51.222;6.624;2022-07-22T16:15:40;7.63;;;6.40;;
3875;SDS011;1953;51.222;6.624;2022-07-22T16:20:22;6.38;;;5.82;;
3875;SDS011;1953;51.222;6.624;2022-07-22T16:25:05;7.93;;;6.38;;
3875;SDS011;1953;51.222;6.624;2022-07-22T16:29:49;8.02;;;6.50;;
3875;SDS011;1953;51.222;6.624;2022-07-22T16:34:32;9.45;;;6.03;;
3875;SDS011;1953;51.222;6.624;2022-07-22T16:39:14;10.10;;;5.38;;
3875;SDS011;1953;51.222;6.624;2022-07-22T16:43:57;8.80;;;6.57;;
3875;SDS011;1953;51.222;6.624;2022-07-22T16:48:42;6.63;;;6.03;;
3875;SDS011;1953;51.222;6.624;2022-07-22T16:53:24;9.57;;;7.63;;
3875;SDS011;1953;51.222;6.624;2022-07-22T16:58:07;14.50;;;9.40;;
3875;SDS011;1953;51.222;6.624;2022-07-22T17:02:49;11.80;;;9.33;;
3875;SDS011;1953;51.222;6.624;2022-07-22T17:07:33;10.23;;;9.20;;
3875;SDS011;1953;51.222;6.624;2022-07-22T17:12:16;13.47;;;10.23;;
3875;SDS011;1953;51.222;6.624;2022-07-22T17:16:58;12.23;;;9.83;;
3875;SDS011;1953;51.222;6.624;2022-07-22T17:21:41;13.67;;;11.10;;
3875;SDS011;1953;51.222;6.624;2022-07-22T17:26:25;13.97;;;11.00;;
3875;SDS011;1953;51.222;6.624;2022-07-22T17:31:07;15.27;;;10.37;;
3875;SDS011;1953;51.222;6.624;2022-07-22T17:35:50;12.47;;;8.80;;
3875;SDS011;1953;51.222;6.624;2022-07-22T17:40:33;9.53;;;8.63;;
3875;SDS011;1953;51.222;6.624;2022-07-22T17:45:17;8.37;;;7.40;;
3875;SDS011;1953;51.222;6.624;2022-07-22T17:49:59;6.80;;;5.60;;
3875;SDS011;1953;51.222;6.624;2022-07-22T17:54:45;8.10;;;5.37;;
3875;SDS011;1953;51.222;6.624;2022-07-22T17:59:28;6.27;;;5.40;;
3875;SDS011;1953;51.222;6.624;2022-07-22T18:04:11;5.20;;;4.70;;
3875;SDS011;1953;51.222;6.624;2022-07-22T18:08:54;13.63;;;5.70;;
3875;SDS011;1953;51.222;6.624;2022-07-22T18:13:36;7.97;;;5.93;;
3875;SDS011;1953;51.222;6.624;2022-07-22T18:18:19;7.10;;;4.97;;
3875;SDS011;1953;51.222;6.624;2022-07-22T18:23:03;5.77;;;5.17;;
3875;SDS011;1953;51.222;6.624;2022-07-22T18:27:46;10.00;;;5.07;;
3875;SDS011;1953;51.222;6.624;2022-07-22T18:32:28;6.30;;;5.30;;
3875;SDS011;1953;51.222;6.624;2022-07-22T18:37:11;7.33;;;5.77;;
3875;SDS011;1953;51.222;6.624;2022-07-22T18:41:54;9.23;;;5.50;;
3875;SDS011;1953;51.222;6.624;2022-07-22T18:46:37;15.83;;;7.70;;
3875;SDS011;1953;51.222;6.624;2022-07-22T18:51:20;10.40;;;6.57;;
3875;SDS011;1953;51.222;6.624;2022-07-22T18:56:02;8.43;;;5.67;;
3875;SDS011;1953;51.222;6.624;2022-07-22T19:00:46;7.07;;;5.40;;
3875;SDS011;1953;51.222;6.624;2022-07-22T19:05:29;6.90;;;6.20;;
3875;SDS011;1953;51.222;6.624;2022-07-22T19:10:11;6.27;;;5.60;;
3875;SDS011;1953;51.222;6.624;2022-07-22T19:14:54;7.60;;;5.63;;
3875;SDS011;1953;51.222;6.624;2022-07-22T19:19:38;5.60;;;5.10;;
3875;SDS011;1953;51.222;6.624;2022-07-22T19:24:20;10.67;;;5.50;;
3875;SDS011;1953;51.222;6.624;2022-07-22T19:29:03;6.83;;;5.43;;
3875;SDS011;1953;51.222;6.624;2022-07-22T19:33:45;5.73;;;5.23;;
3875;SDS011;1953;51.222;6.624;2022-07-22T19:38:31;8.93;;;5.60;;
3875;SDS011;1953;51.222;6.624;2022-07-22T19:43:13;8.30;;;5.40;;
3875;SDS011;1953;51.222;6.624;2022-07-22T19:47:56;9.37;;;5.47;;
3875;SDS011;1953;51.222;6.624;2022-07-22T19:52:38;7.57;;;4.83;;
3875;SDS011;1953;51.222;6.624;2022-07-22T19:57:22;8.63;;;4.70;;
3875;SDS011;1953;51.222;6.624;2022-07-22T20:02:05;6.67;;;5.00;;
3875;SDS011;1953;51.222;6.624;2022-07-22T20:06:48;6.53;;;4.77;;
3875;SDS011;1953;51.222;6.624;2022-07-22T20:11:30;9.33;;;5.17;;
3875;SDS011;1953;51.222;6.624;2022-07-22T20:16:15;5.77;;;4.73;;
3875;SDS011;1953;51.222;6.624;2022-07-22T20:20:58;6.77;;;4.13;;
3875;SDS011;1953;51.222;6.624;2022-07-22T20:25:40;7.27;;;4.40;;
3875;SDS011;1953;51.222;6.624;2022-07-22T20:30:23;8.17;;;4.70;;
3875;SDS011;1953;51.222;6.624;2022-07-22T20:35:07;6.70;;;5.27;;
3875;SDS011;1953;51.222;6.624;2022-07-22T20:39:50;4.47;;;4.07;;
3875;SDS011;1953;51.222;6.624;2022-07-22T20:44:32;10.07;;;4.90;;
3875;SDS011;1953;51.222;6.624;2022-07-22T20:49:15;7.73;;;4.37;;
3875;SDS011;1953;51.222;6.624;2022-07-22T20:53:59;8.00;;;4.30;;
3875;SDS011;1953;51.222;6.624;2022-07-22T20:58:41;7.60;;;5.13;;
3875;SDS011;1953;51.222;6.624;2022-07-22T21:03:24;6.70;;;4.73;;
3875;SDS011;1953;51.222;6.624;2022-07-22T21:08:06;7.20;;;4.40;;
3875;SDS011;1953;51.222;6.624;2022-07-22T21:12:50;7.87;;;3.93;;
3875;SDS011;1953;51.222;6.624;2022-07-22T21:17:32;7.20;;;3.93;;
3875;SDS011;1953;51.222;6.624;2022-07-22T21:22:15;9.43;;;4.70;;
3875;SDS011;1953;51.222;6.624;2022-07-22T21:26:57;5.80;;;4.50;;
3875;SDS011;1953;51.222;6.624;2022-07-22T21:31:42;7.70;;;4.53;;
3875;SDS011;1953;51.222;6.624;2022-07-22T21:36:25;7.90;;;4.90;;
3875;SDS011;1953;51.222;6.624;2022-07-22T21:41:07;18.07;;;5.67;;
3875;SDS011;1953;51.222;6.624;2022-07-22T21:45:50;7.00;;;5.27;;
3875;SDS011;1953;51.222;6.624;2022-07-22T21:50:34;13.13;;;5.07;;
3875;SDS011;1953;51.222;6.624;2022-07-22T21:55:16;15.13;;;6.07;;
3875;SDS011;1953;51.222;6.624;2022-07-22T21:59:59;6.00;;;4.80;;
3875;SDS011;1953;51.222;6.624;2022-07-22T22:04:41;7.10;;;5.30;;
3875;SDS011;1953;51.222;6.624;2022-07-22T22:09:25;8.33;;;4.93;;
3875;SDS011;1953;51.222;6.624;2022-07-22T22:14:08;8.53;;;5.30;;
3875;SDS011;1953;51.222;6.624;2022-07-22T22:18:51;9.37;;;5.60;;
3875;SDS011;1953;51.222;6.624;2022-07-22T22:23:35;7.47;;;5.23;;
3875;SDS011;1953;51.222;6.624;2022-07-22T22:28:19;7.47;;;6.17;;
3875;SDS011;1953;51.222;6.624;2022-07-22T22:33:02;8.50;;;6.63;;
3875;SDS011;1953;51.222;6.624;2022-07-22T22:37:46;8.83;;;7.00;;
3875;SDS011;1953;51.222;6.624;2022-07-22T22:42:28;10.97;;;7.73;;
3875;SDS011;1953;51.222;6.624;2022-07-22T22:47:12;13.23;;;7.50;;
3875;SDS011;1953;51.222;6.624;2022-07-22T22:51:55;10.77;;;8.40;;
3875;SDS011;1953;51.222;6.624;2022-07-22T22:56:37;14.10;;;8.50;;
3875;SDS011;1953;51.222;6.624;2022-07-22T23:01:20;20.17;;;8.73;;
3875;SDS011;1953;51.222;6.624;2022-07-22T23:06:05;16.87;;;8.80;;
3875;SDS011;1953;51.222;6.624;2022-07-22T23:10:48;14.37;;;7.97;;
3875;SDS011;1953;51.222;6.624;2022-07-22T23:15:30;13.23;;;8.33;;
3875;SDS011;1953;51.222;6.624;2022-07-22T23:20:13;11.40;;;8.23;;
3875;SDS011;1953;51.222;6.624;2022-07-22T23:24:57;18.93;;;9.50;;
3875;SDS011;1953;51.222;6.624;2022-07-22T23:29:40;13.93;;;10.43;;
3875;SDS011;1953;51.222;6.624;2022-07-22T23:34:22;15.33;;;10.67;;
3875;SDS011;1953;51.222;6.624;2022-07-22T23:39:05;15.37;;;10.20;;
3875;SDS011;1953;51.222;6.624;2022-07-22T23:43:49;16.10;;;10.73;;
3875;SDS011;1953;51.222;6.624;2022-07-22T23:48:31;17.93;;;11.00;;
3875;SDS011;1953;51.222;6.624;2022-07-22T23:53:14;14.80;;;11.40;;
3875;SDS011;1953;51.222;6.624;2022-07-22T23:57:56;13.83;;;10.30;;
